Time;durP1;ratioP1;P1;durP2;ratioP2;P2;SDS_P1;SDS_P2;PMS_P1;PMS_P2;Temp;Humidity;BMP_temperature;BMP_pressure;BME280_temperature;BME280_humidity;BME280_pressure;Samples;Min_cycle;Max_cycle;Signal;HPM_P1;HPM_P2
2023/05/21 07:21:58;;;;;;;1.95;1.85;;;;;;;;;;7395954;19;20168;-91
2023/05/21 07:24:30;;;;;;;1.52;1.42;;;;;;;;;;7395210;19;20220;-91
2023/05/21 07:26:57;;;;;;;2.60;2.25;;;;;;;;;;7392341;19;20141;-91
2023/05/21 07:29:28;;;;;;;1.42;1.33;;;;;;;;;;7388015;19;20185;-91
2023/05/21 07:32:22;;;;;;;1.60;1.42;;;;;;;;;;7387882;19;20140;-91
2023/05/21 07:35:05;;;;;;;0.93;0.93;;;;;;;;;;7390622;19;20152;-92
2023/05/21 07:37:34;;;;;;;0.98;0.98;;;;;;;;;;7389524;19;20149;-91
2023/05/21 07:40:01;;;;;;;2.47;1.45;;;;;;;;;;7387728;19;20133;-91
2023/05/21 07:42:27;;;;;;;1.42;1.38;;;;;;;;;;7387067;19;20151;-92
2023/05/21 07:44:57;;;;;;;1.38;1.30;;;;;;;;;;7397174;19;20149;-91
2023/05/21 07:47:28;;;;;;;2.47;2.28;;;;;;;;;;7394364;19;20554;-92
2023/05/21 07:50:51;;;;;;;1.08;1.08;;;;;;;;;;7395819;19;20149;-91
2023/05/21 07:53:32;;;;;;;1.60;1.50;;;;;;;;;;7394677;19;20197;-91
2023/05/21 07:56:34;;;;;;;0.85;0.85;;;;;;;;;;7394206;19;20140;-90
2023/05/21 07:59:02;;;;;;;10.73;1.73;;;;;;;;;;7397386;19;20153;-91
2023/05/21 08:01:32;;;;;;;1.52;1.42;;;;;;;;;;7393446;19;20235;-91
2023/05/21 08:04:41;;;;;;;1.85;1.27;;;;;;;;;;7391570;19;20606;-91
2023/05/21 08:07:20;;;;;;;1.65;1.55;;;;;;;;;;7391848;19;20144;-91
2023/05/21 08:09:48;;;;;;;2.53;2.33;;;;;;;;;;7396437;19;20187;-91
2023/05/21 08:12:21;;;;;;;1.42;1.33;;;;;;;;;;7397742;19;20162;-91
2023/05/21 08:44:43;;;;;;;2.10;1.95;;;;;;;;;;7434908;19;20397;-96
2023/05/21 08:47:11;;;;;;;1.80;1.70;;;;;;;;;;7433391;19;20129;-96
2023/05/21 08:49:43;;;;;;;1.90;1.75;;;;;;;;;;7433281;19;20140;-95
2023/05/21 08:52:16;;;;;;;4.43;1.95;;;;;;;;;;7418035;19;20140;-96
2023/05/21 08:57:49;;;;;;;1.65;1.55;;;;;;;;;;7426227;19;20120;-95
2023/05/21 09:00:16;;;;;;;1.63;1.52;;;;;;;;;;7426836;19;20140;-94
2023/05/21 09:02:49;;;;;;;1.65;1.58;;;;;;;;;;7421946;19;20140;-94
2023/05/21 09:23:19;;;;;;;1.33;1.33;;;;;;;;;;7398236;19;20238;-90
2023/05/21 09:25:55;;;;;;;1.70;1.50;;;;;;;;;;7393061;19;20170;-90
2023/05/21 09:28:51;;;;;;;2.95;2.20;;;;;;;;;;7394169;19;20160;-89
2023/05/21 09:31:24;;;;;;;1.38;1.33;;;;;;;;;;7400072;19;20655;-89
2023/05/21 09:34:13;;;;;;;5.20;2.00;;;;;;;;;;7404693;19;20147;-89
2023/05/21 09:37:05;;;;;;;4.03;2.20;;;;;;;;;;7401865;19;20144;-89
2023/05/21 09:40:00;;;;;;;2.00;1.90;;;;;;;;;;7403259;19;20601;-89
2023/05/21 09:42:29;;;;;;;1.75;1.65;;;;;;;;;;7404034;19;20246;-89
2023/05/21 09:44:56;;;;;;;1.17;1.15;;;;;;;;;;7402061;19;20208;-89
2023/05/21 09:47:32;;;;;;;2.28;2.08;;;;;;;;;;7396765;19;20133;-89
2023/05/21 09:49:59;;;;;;;0.57;0.57;;;;;;;;;;7398069;19;20137;-89
2023/05/21 09:52:35;;;;;;;1.20;1.13;;;;;;;;;;7402927;19;20482;-88
2023/05/21 09:55:18;;;;;;;1.27;1.25;;;;;;;;;;7403535;19;20144;-89
2023/05/21 09:57:48;;;;;;;1.90;1.80;;;;;;;;;;7403250;19;20157;-89
2023/05/21 10:00:21;;;;;;;0.70;0.70;;;;;;;;;;7405241;19;20141;-89
2023/05/21 10:02:50;;;;;;;2.30;2.00;;;;;;;;;;7395519;19;20153;-89
2023/05/21 10:05:17;;;;;;;1.60;1.50;;;;;;;;;;7395334;19;20141;-89
2023/05/21 10:07:51;;;;;;;1.35;1.25;;;;;;;;;;7402859;19;20612;-89
2023/05/21 10:10:19;;;;;;;6.32;2.05;;;;;;;;;;7403724;19;20135;-89
2023/05/21 10:12:50;;;;;;;2.13;1.38;;;;;;;;;;7401983;19;20208;-89
2023/05/21 10:15:21;;;;;;;1.15;1.10;;;;;;;;;;7404642;19;20163;-89
2023/05/21 10:17:48;;;;;;;1.00;1.00;;;;;;;;;;7403913;19;20168;-89
2023/05/21 10:20:16;;;;;;;1.27;1.17;;;;;;;;;;7405202;19;20613;-89
2023/05/21 10:22:43;;;;;;;2.83;1.67;;;;;;;;;;7406907;19;20140;-89
2023/05/21 10:25:11;;;;;;;1.17;1.17;;;;;;;;;;7409064;19;20129;-90
2023/05/21 10:27:45;;;;;;;2.03;1.85;;;;;;;;;;7409541;19;20145;-86
2023/05/21 10:30:19;;;;;;;1.35;1.33;;;;;;;;;;7405236;19;20240;-85
2023/05/21 10:32:54;;;;;;;1.80;1.70;;;;;;;;;;7401416;19;20557;-91
2023/05/21 10:35:27;;;;;;;1.65;1.17;;;;;;;;;;7410654;19;20491;-88
2023/05/21 10:38:37;;;;;;;1.33;1.25;;;;;;;;;;7391846;19;20603;-90
2023/05/21 10:41:06;;;;;;;1.20;1.15;;;;;;;;;;7406892;19;20160;-86
2023/05/21 10:47:39;;;;;;;0.88;0.88;;;;;;;;;;7408768;19;20148;-87
2023/05/21 10:50:35;;;;;;;1.35;1.25;;;;;;;;;;7406915;19;20144;-87
2023/05/21 10:53:38;;;;;;;5.15;1.52;;;;;;;;;;7403658;19;20155;-87
2023/05/21 10:56:43;;;;;;;0.95;0.95;;;;;;;;;;7406881;19;20141;-87
2023/05/21 10:59:35;;;;;;;0.93;0.85;;;;;;;;;;7407649;19;20192;-87
2023/05/21 11:02:16;;;;;;;1.02;1.02;;;;;;;;;;7407517;19;20141;-88
2023/05/21 11:04:58;;;;;;;1.13;1.13;;;;;;;;;;7408963;19;20165;-88
2023/05/21 11:08:37;;;;;;;0.90;0.90;;;;;;;;;;7403245;19;20154;-87
2023/05/21 11:18:13;;;;;;;1.25;1.23;;;;;;;;;;7402870;19;20702;-88
2023/05/21 11:21:34;;;;;;;1.35;1.30;;;;;;;;;;7404315;19;20156;-88
2023/05/21 11:30:33;;;;;;;1.23;1.23;;;;;;;;;;7414830;19;20196;-93
2023/05/21 11:33:12;;;;;;;1.50;1.40;;;;;;;;;;7413194;19;20144;-92
2023/05/21 11:35:49;;;;;;;1.23;1.17;;;;;;;;;;7418213;19;20164;-95
2023/05/21 11:38:20;;;;;;;1.33;1.23;;;;;;;;;;7401286;19;20153;-94
2023/05/21 11:40:53;;;;;;;1.67;1.58;;;;;;;;;;7411851;19;20144;-93
2023/05/21 11:46:04;;;;;;;2.13;1.77;;;;;;;;;;7403731;19;20124;-90
2023/05/21 11:49:19;;;;;;;2.80;1.60;;;;;;;;;;7400712;19;20567;-90
2023/05/21 11:52:58;;;;;;;1.40;1.30;;;;;;;;;;7397220;19;20168;-91
2023/05/21 11:59:57;;;;;;;1.63;1.52;;;;;;;;;;7399366;19;20283;-90
2023/05/21 12:03:15;;;;;;;;;;;;;;;;;;;;;
2023/05/21 12:06:41;;;;;;;1.45;1.35;;;;;;;;;;7400052;19;20192;-89
2023/05/21 12:19:45;;;;;;;1.08;1.05;;;;;;;;;;7403878;19;20150;-90
2023/05/21 12:22:15;;;;;;;1.40;0.95;;;;;;;;;;7404817;19;20293;-91
2023/05/21 12:24:48;;;;;;;1.33;1.23;;;;;;;;;;7407453;19;20196;-90
2023/05/21 12:27:17;;;;;;;1.33;1.25;;;;;;;;;;7398007;19;20137;-90
2023/05/21 12:29:51;;;;;;;1.23;1.23;;;;;;;;;;7398162;19;20153;-90
2023/05/21 12:32:19;;;;;;;0.82;0.82;;;;;;;;;;7397488;19;20660;-90
2023/05/21 12:34:53;;;;;;;0.70;0.70;;;;;;;;;;7401679;19;20697;-89
2023/05/21 12:37:30;;;;;;;1.08;0.90;;;;;;;;;;7399037;19;20139;-89
2023/05/21 12:39:57;;;;;;;1.52;1.30;;;;;;;;;;7399546;19;20153;-89
2023/05/21 12:42:33;;;;;;;1.55;1.45;;;;;;;;;;7401563;19;20148;-89
2023/05/21 12:45:05;;;;;;;1.38;1.38;;;;;;;;;;7398860;19;20133;-89
2023/05/21 12:47:32;;;;;;;1.00;0.90;;;;;;;;;;7398582;19;20152;-89
2023/05/21 12:50:01;;;;;;;1.10;1.10;;;;;;;;;;7407942;19;20586;-89
2023/05/21 12:52:28;;;;;;;1.08;1.08;;;;;;;;;;7396323;19;20137;-89
2023/05/21 12:54:56;;;;;;;1.25;1.15;;;;;;;;;;7399779;19;20551;-89
2023/05/21 12:57:35;;;;;;;1.00;0.98;;;;;;;;;;7399570;19;20133;-89
2023/05/21 13:00:05;;;;;;;1.58;1.48;;;;;;;;;;7398638;19;20145;-89
2023/05/21 13:02:40;;;;;;;1.02;1.02;;;;;;;;;;7399174;19;20168;-90
2023/05/21 13:05:10;;;;;;;0.90;0.90;;;;;;;;;;7397519;19;20151;-88
2023/05/21 13:07:57;;;;;;;0.98;0.98;;;;;;;;;;7396016;19;20145;-90
2023/05/21 13:10:24;;;;;;;1.67;1.58;;;;;;;;;;7396520;19;20610;-90
2023/05/21 13:12:51;;;;;;;1.13;1.13;;;;;;;;;;7403439;19;20611;-89
2023/05/21 13:15:29;;;;;;;1.55;1.17;;;;;;;;;;7405183;19;20141;-89
2023/05/21 13:18:52;;;;;;;1.17;1.17;;;;;;;;;;7402627;19;20207;-86
2023/05/21 13:21:18;;;;;;;1.55;1.45;;;;;;;;;;7403354;19;20145;-87
2023/05/21 13:23:45;;;;;;;4.50;1.90;;;;;;;;;;7407421;19;20459;-86
2023/05/21 13:26:12;;;;;;;1.17;1.08;;;;;;;;;;7408087;19;20149;-86
2023/05/21 13:28:38;;;;;;;1.48;1.38;;;;;;;;;;7409293;19;20166;-86
2023/05/21 13:31:08;;;;;;;0.85;0.77;;;;;;;;;;7410059;19;20141;-87
2023/05/21 13:33:35;;;;;;;1.02;0.93;;;;;;;;;;7406238;19;20141;-87
2023/05/21 13:36:14;;;;;;;1.42;1.33;;;;;;;;;;7408494;19;20562;-87
2023/05/21 13:38:44;;;;;;;1.10;1.02;;;;;;;;;;7416666;19;20192;-95
2023/05/21 13:47:24;;;;;;;1.08;1.00;;;;;;;;;;7404290;19;20127;-90
2023/05/21 13:49:51;;;;;;;1.42;1.33;;;;;;;;;;7402129;19;20192;-90
2023/05/21 13:52:18;;;;;;;1.00;1.00;;;;;;;;;;7398653;19;20148;-89
2023/05/21 13:54:45;;;;;;;1.20;1.20;;;;;;;;;;7400090;19;20145;-92
2023/05/21 13:57:14;;;;;;;0.65;0.65;;;;;;;;;;7397864;19;20636;-92
2023/05/21 13:59:41;;;;;;;0.80;0.80;;;;;;;;;;7393842;19;20188;-91
2023/05/21 14:02:08;;;;;;;1.77;1.67;;;;;;;;;;7402797;19;20606;-92
2023/05/21 14:04:36;;;;;;;0.60;0.60;;;;;;;;;;7404285;19;20164;-92
2023/05/21 14:07:05;;;;;;;1.13;1.08;;;;;;;;;;7404897;19;20204;-92
2023/05/21 14:09:32;;;;;;;0.70;0.70;;;;;;;;;;7400360;19;20177;-92
2023/05/21 14:12:00;;;;;;;1.40;1.30;;;;;;;;;;7410709;19;20133;-92
2023/05/21 14:14:27;;;;;;;0.93;0.93;;;;;;;;;;7422962;19;20149;-92
2023/05/21 14:16:54;;;;;;;1.02;1.02;;;;;;;;;;7422801;19;20144;-92
2023/05/21 14:19:21;;;;;;;1.02;0.88;;;;;;;;;;7423492;19;20172;-92
2023/05/21 14:22:24;;;;;;;1.67;1.52;;;;;;;;;;7409002;19;20129;-92
2023/05/21 14:25:02;;;;;;;1.60;1.50;;;;;;;;;;7398563;19;20204;-92
2023/05/21 14:27:57;;;;;;;1.13;1.13;;;;;;;;;;7398416;19;20136;-93
2023/05/21 14:30:38;;;;;;;1.10;1.10;;;;;;;;;;7397054;19;20164;-92
2023/05/21 14:33:05;;;;;;;0.88;0.88;;;;;;;;;;7395313;19;20145;-91
2023/05/21 14:35:33;;;;;;;1.15;0.90;;;;;;;;;;7396414;19;20133;-91
2023/05/21 14:38:01;;;;;;;0.57;0.57;;;;;;;;;;7385561;19;20164;-92
2023/05/21 14:40:42;;;;;;;3.25;1.48;;;;;;;;;;7395823;19;20155;-92
2023/05/21 14:43:15;;;;;;;4.82;1.27;;;;;;;;;;7397106;19;20137;-92
2023/05/21 14:45:42;;;;;;;0.75;0.75;;;;;;;;;;7396737;19;20153;-92
2023/05/21 14:48:17;;;;;;;0.73;0.73;;;;;;;;;;7396027;19;20232;-92
2023/05/21 14:51:05;;;;;;;0.77;0.77;;;;;;;;;;7397988;19;20352;-92
2023/05/21 14:54:31;;;;;;;0.65;0.65;;;;;;;;;;7395599;19;20204;-90
2023/05/21 14:58:13;;;;;;;1.05;0.95;;;;;;;;;;7397879;19;20139;-93
2023/05/21 15:00:42;;;;;;;1.00;1.00;;;;;;;;;;7394029;19;20144;-92
2023/05/21 15:03:09;;;;;;;1.02;0.90;;;;;;;;;;7395173;19;20515;-93
2023/05/21 15:05:36;;;;;;;0.93;0.93;;;;;;;;;;7391501;19;20158;-94
2023/05/21 15:08:04;;;;;;;0.90;0.90;;;;;;;;;;7388511;19;20619;-93
2023/05/21 15:10:31;;;;;;;1.38;1.10;;;;;;;;;;7394408;19;20137;-94
2023/05/21 15:12:57;;;;;;;0.70;0.60;;;;;;;;;;7393820;19;20133;-94
2023/05/21 15:15:24;;;;;;;1.27;1.17;;;;;;;;;;7393861;19;20141;-93
2023/05/21 15:17:51;;;;;;;0.65;0.65;;;;;;;;;;7391303;19;20168;-94
2023/05/21 15:20:18;;;;;;;0.90;0.90;;;;;;;;;;7392847;19;20686;-93
2023/05/21 15:22:46;;;;;;;0.77;0.73;;;;;;;;;;7393850;19;20156;-93
2023/05/21 15:25:13;;;;;;;0.75;0.75;;;;;;;;;;7394911;19;20152;-93
2023/05/21 15:27:39;;;;;;;0.65;0.65;;;;;;;;;;7395129;19;20249;-93
2023/05/21 15:30:06;;;;;;;0.90;0.90;;;;;;;;;;7394322;19;20169;-94
2023/05/21 15:32:33;;;;;;;0.52;0.52;;;;;;;;;;7406647;19;20136;-93
2023/05/21 15:35:00;;;;;;;1.02;1.02;;;;;;;;;;7397672;19;20148;-94
2023/05/21 15:37:27;;;;;;;1.30;0.85;;;;;;;;;;7395306;19;20137;-94
2023/05/21 15:39:53;;;;;;;0.80;0.80;;;;;;;;;;7390820;19;20649;-93
2023/05/21 15:42:20;;;;;;;0.75;0.57;;;;;;;;;;7394435;19;20141;-94
2023/05/21 15:44:47;;;;;;;1.35;1.25;;;;;;;;;;7392694;19;20164;-93
2023/05/21 15:47:14;;;;;;;0.70;0.70;;;;;;;;;;7395102;19;20147;-94
2023/05/21 15:49:41;;;;;;;0.90;0.90;;;;;;;;;;7393831;19;20157;-94
2023/05/21 15:52:08;;;;;;;2.72;1.20;;;;;;;;;;7395260;19;20179;-94
2023/05/21 15:54:35;;;;;;;0.80;0.80;;;;;;;;;;7391482;19;20140;-94
2023/05/21 15:57:01;;;;;;;0.70;0.70;;;;;;;;;;7394914;19;20148;-94
2023/05/21 15:59:28;;;;;;;0.90;0.90;;;;;;;;;;7389226;19;20166;-93
2023/05/21 16:01:54;;;;;;;0.85;0.85;;;;;;;;;;7393460;19;20144;-93
2023/05/21 16:04:21;;;;;;;0.68;0.68;;;;;;;;;;7391971;19;20147;-94
2023/05/21 16:06:48;;;;;;;0.82;0.82;;;;;;;;;;7393724;19;20550;-94
2023/05/21 16:09:15;;;;;;;0.73;0.73;;;;;;;;;;7392858;19;20157;-93
2023/05/21 16:11:45;;;;;;;0.75;0.75;;;;;;;;;;7395045;19;20145;-94
2023/05/21 16:14:12;;;;;;;0.50;0.50;;;;;;;;;;7393237;19;20157;-93
2023/05/21 16:16:38;;;;;;;0.75;0.75;;;;;;;;;;7397431;19;20147;-93
2023/05/21 16:19:05;;;;;;;0.65;0.65;;;;;;;;;;7395718;19;20193;-94
2023/05/21 16:21:32;;;;;;;0.70;0.70;;;;;;;;;;7397871;19;20144;-94
2023/05/21 16:23:59;;;;;;;1.40;1.30;;;;;;;;;;7398292;19;20659;-93
2023/05/21 16:26:26;;;;;;;0.60;0.60;;;;;;;;;;7394542;19;20537;-93
2023/05/21 16:28:52;;;;;;;0.68;0.68;;;;;;;;;;7397258;19;20157;-94
2023/05/21 16:31:19;;;;;;;0.52;0.52;;;;;;;;;;7396717;19;20568;-93
2023/05/21 16:33:46;;;;;;;1.02;1.02;;;;;;;;;;7393101;19;20177;-93
2023/05/21 17:40:40;;;;;;;0.43;0.43;;;;;;;;;;7387100;19;20228;-96
2023/05/21 17:43:08;;;;;;;1.33;0.75;;;;;;;;;;7436549;19;20169;-96
2023/05/21 17:45:36;;;;;;;0.70;0.70;;;;;;;;;;7432610;19;20163;-96
2023/05/21 17:48:10;;;;;;;0.85;0.85;;;;;;;;;;7434843;19;20140;-96
2023/05/21 18:00:30;;;;;;;0.68;0.68;;;;;;;;;;7408001;19;20145;-91
2023/05/21 18:02:57;;;;;;;0.60;0.60;;;;;;;;;;7407338;19;20140;-90
2023/05/21 18:05:24;;;;;;;1.58;0.85;;;;;;;;;;7408584;19;20503;-91
2023/05/21 18:07:51;;;;;;;0.43;0.43;;;;;;;;;;7406904;19;20141;-90
2023/05/21 18:10:18;;;;;;;0.98;0.98;;;;;;;;;;7406335;19;20168;-90
2023/05/21 18:12:45;;;;;;;0.68;0.68;;;;;;;;;;7407048;19;20144;-90
2023/05/21 18:15:13;;;;;;;0.73;0.73;;;;;;;;;;7404086;19;20152;-90
2023/05/21 18:17:39;;;;;;;1.02;1.02;;;;;;;;;;7401548;19;20129;-91
2023/05/21 18:20:33;;;;;;;0.45;0.45;;;;;;;;;;7401101;19;20133;-90
2023/05/21 18:23:13;;;;;;;1.95;0.90;;;;;;;;;;7400959;19;20139;-90
2023/05/21 18:25:40;;;;;;;0.70;0.70;;;;;;;;;;7400414;19;20145;-90
2023/05/21 18:28:07;;;;;;;0.90;0.90;;;;;;;;;;7397069;19;20171;-90
2023/05/21 18:30:34;;;;;;;0.70;0.70;;;;;;;;;;7396497;19;20144;-90
2023/05/21 18:33:01;;;;;;;0.88;0.88;;;;;;;;;;7395709;19;20133;-91
2023/05/21 18:35:29;;;;;;;0.68;0.68;;;;;;;;;;7397680;19;20175;-91
2023/05/21 18:37:56;;;;;;;0.50;0.50;;;;;;;;;;7395589;19;20164;-90
2023/05/21 18:40:25;;;;;;;0.88;0.88;;;;;;;;;;7405426;19;20141;-90
2023/05/21 18:42:55;;;;;;;0.90;0.90;;;;;;;;;;7404415;19;20129;-90
2023/05/21 18:45:22;;;;;;;0.73;0.73;;;;;;;;;;7405334;19;20145;-90
2023/05/21 18:47:49;;;;;;;0.50;0.50;;;;;;;;;;7403297;19;20168;-90
2023/05/21 18:50:17;;;;;;;1.58;1.48;;;;;;;;;;7403010;19;20540;-90
2023/05/21 18:52:45;;;;;;;0.50;0.50;;;;;;;;;;7404349;19;20133;-90
2023/05/21 18:55:12;;;;;;;0.88;0.88;;;;;;;;;;7400913;19;20136;-90
2023/05/21 18:57:39;;;;;;;1.08;1.05;;;;;;;;;;7402332;19;20204;-90
2023/05/21 19:00:08;;;;;;;0.82;0.80;;;;;;;;;;7402337;19;20143;-91
2023/05/21 19:02:36;;;;;;;0.73;0.73;;;;;;;;;;7402238;19;20145;-90
2023/05/21 19:05:02;;;;;;;0.57;0.57;;;;;;;;;;7399741;19;20137;-91
2023/05/21 19:07:29;;;;;;;1.25;1.23;;;;;;;;;;7400227;19;20158;-91
2023/05/21 19:09:56;;;;;;;1.08;1.08;;;;;;;;;;7401184;19;20159;-91
2023/05/21 19:12:23;;;;;;;0.55;0.55;;;;;;;;;;7403593;19;20124;-90
2023/05/21 19:14:49;;;;;;;1.45;1.35;;;;;;;;;;7402106;19;20147;-91
2023/05/21 19:17:16;;;;;;;0.68;0.68;;;;;;;;;;7403272;19;20680;-90
2023/05/21 19:19:43;;;;;;;0.65;0.65;;;;;;;;;;7402873;19;20568;-91
2023/05/21 19:22:10;;;;;;;0.45;0.45;;;;;;;;;;7405223;19;20535;-91
2023/05/21 19:24:37;;;;;;;1.17;1.08;;;;;;;;;;7403721;19;20141;-91
2023/05/21 19:27:03;;;;;;;0.80;0.80;;;;;;;;;;7404039;19;20139;-91
2023/05/21 19:29:30;;;;;;;1.23;1.23;;;;;;;;;;7403749;19;20197;-91
2023/05/21 19:31:57;;;;;;;0.80;0.80;;;;;;;;;;7404602;19;20200;-91
2023/05/21 19:34:25;;;;;;;0.75;0.75;;;;;;;;;;7404510;19;20133;-91
2023/05/21 19:36:52;;;;;;;0.75;0.75;;;;;;;;;;7400769;19;20136;-91
2023/05/21 19:39:43;;;;;;;0.85;0.85;;;;;;;;;;7404006;19;20176;-90
2023/05/21 19:42:13;;;;;;;1.75;1.02;;;;;;;;;;7398633;19;20165;-91
2023/05/21 19:44:40;;;;;;;0.68;0.65;;;;;;;;;;7401104;19;20518;-91
2023/05/21 19:47:07;;;;;;;0.80;0.80;;;;;;;;;;7402238;19;20212;-91
2023/05/21 19:49:33;;;;;;;3.13;0.60;;;;;;;;;;7400875;19;20459;-90
2023/05/21 19:52:01;;;;;;;1.52;1.42;;;;;;;;;;7405116;19;20173;-91
2023/05/21 19:54:28;;;;;;;0.73;0.73;;;;;;;;;;7401752;19;20556;-91
2023/05/21 19:56:55;;;;;;;0.85;0.85;;;;;;;;;;7401588;19;20141;-91
2023/05/21 19:59:22;;;;;;;0.73;0.70;;;;;;;;;;7400225;19;20153;-90
2023/05/21 20:01:49;;;;;;;1.15;1.05;;;;;;;;;;7403271;19;20145;-90
2023/05/21 20:04:15;;;;;;;1.10;1.00;;;;;;;;;;7424347;19;20165;-90
2023/05/21 20:06:54;;;;;;;0.60;0.60;;;;;;;;;;7422652;19;20154;-90
2023/05/21 20:09:21;;;;;;;1.45;1.23;;;;;;;;;;7423240;19;20181;-91
2023/05/21 20:11:50;;;;;;;1.08;0.95;;;;;;;;;;7414128;19;20137;-90
2023/05/21 20:14:17;;;;;;;1.02;1.02;;;;;;;;;;7414367;19;20165;-90
2023/05/21 20:16:45;;;;;;;1.65;1.10;;;;;;;;;;7412057;19;20163;-90
2023/05/21 20:19:13;;;;;;;1.45;0.85;;;;;;;;;;7407043;19;20156;-89
2023/05/21 20:21:43;;;;;;;0.77;0.77;;;;;;;;;;7402888;19;20137;-90
2023/05/21 20:24:10;;;;;;;1.52;1.42;;;;;;;;;;7400692;19;20149;-90
2023/05/21 20:26:38;;;;;;;0.80;0.80;;;;;;;;;;7404709;19;20196;-90
2023/05/21 20:29:06;;;;;;;0.70;0.70;;;;;;;;;;7405493;19;20173;-90
2023/05/21 20:31:33;;;;;;;0.88;0.88;;;;;;;;;;7409577;19;20140;-90
2023/05/21 20:34:00;;;;;;;0.82;0.80;;;;;;;;;;7409120;19;20151;-91
2023/05/21 20:36:29;;;;;;;0.52;0.52;;;;;;;;;;7406338;19;20474;-90
2023/05/21 20:38:56;;;;;;;0.85;0.85;;;;;;;;;;7408524;19;20160;-90
2023/05/21 20:41:24;;;;;;;0.73;0.73;;;;;;;;;;7405477;19;20129;-91
2023/05/21 20:43:51;;;;;;;1.50;1.40;;;;;;;;;;7407189;19;20129;-90
2023/05/21 20:46:18;;;;;;;0.88;0.88;;;;;;;;;;7410308;19;20133;-90
2023/05/21 20:48:46;;;;;;;1.25;0.95;;;;;;;;;;7405066;19;20171;-90
2023/05/21 20:51:12;;;;;;;1.30;1.30;;;;;;;;;;7403484;19;20170;-90
2023/05/21 20:53:39;;;;;;;1.13;1.02;;;;;;;;;;7399521;19;20634;-91
2023/05/21 20:56:10;;;;;;;0.47;0.47;;;;;;;;;;7399754;19;20197;-91
2023/05/21 20:58:38;;;;;;;1.33;1.23;;;;;;;;;;7398587;19;20197;-91
2023/05/21 21:01:06;;;;;;;0.70;0.70;;;;;;;;;;7401275;19;20145;-90
2023/05/21 21:03:33;;;;;;;0.70;0.70;;;;;;;;;;7396691;19;20145;-91
2023/05/21 21:06:00;;;;;;;0.95;0.77;;;;;;;;;;7403091;19;20145;-91
2023/05/21 21:08:27;;;;;;;0.70;0.70;;;;;;;;;;7403156;19;20168;-90
2023/05/21 21:10:53;;;;;;;1.02;1.02;;;;;;;;;;7400557;19;20164;-91
2023/05/21 21:13:20;;;;;;;0.82;0.80;;;;;;;;;;7404033;19;20133;-90
2023/05/21 21:15:47;;;;;;;0.73;0.73;;;;;;;;;;7402206;19;20144;-91
2023/05/21 21:18:15;;;;;;;1.33;0.95;;;;;;;;;;7401807;19;20175;-91
2023/05/21 21:20:48;;;;;;;0.88;0.88;;;;;;;;;;7397436;19;20618;-90
2023/05/21 21:23:22;;;;;;;0.80;0.80;;;;;;;;;;7398332;19;20630;-91
2023/05/21 21:25:55;;;;;;;0.82;0.82;;;;;;;;;;7403378;19;20140;-90
2023/05/21 21:28:36;;;;;;;2.25;2.08;;;;;;;;;;7400696;19;20554;-90
2023/05/21 21:31:05;;;;;;;1.73;1.05;;;;;;;;;;7399864;19;20144;-90
2023/05/21 21:33:41;;;;;;;0.65;0.65;;;;;;;;;;7399848;19;20479;-90
2023/05/21 21:36:12;;;;;;;1.10;1.10;;;;;;;;;;7399308;19;20140;-90
2023/05/21 21:38:41;;;;;;;0.60;0.60;;;;;;;;;;7401924;19;20167;-90
2023/05/21 21:41:08;;;;;;;1.95;1.65;;;;;;;;;;7401149;19;20706;-90
2023/05/21 21:43:35;;;;;;;0.98;0.98;;;;;;;;;;7400349;19;20149;-90
2023/05/21 21:46:02;;;;;;;1.42;1.38;;;;;;;;;;7402721;19;20129;-91
2023/05/21 21:48:29;;;;;;;1.42;1.17;;;;;;;;;;7402662;19;20173;-91
2023/05/21 21:50:56;;;;;;;0.70;0.70;;;;;;;;;;7402526;19;20196;-90
2023/05/21 21:53:22;;;;;;;2.13;1.02;;;;;;;;;;7404106;19;20131;-90
2023/05/21 21:55:50;;;;;;;1.23;1.17;;;;;;;;;;7400871;19;20227;-91
2023/05/21 21:58:16;;;;;;;0.63;0.63;;;;;;;;;;7400276;19;20175;-90
2023/05/21 22:00:43;;;;;;;1.55;0.98;;;;;;;;;;7402699;19;20581;-90
2023/05/21 22:03:10;;;;;;;0.95;0.77;;;;;;;;;;7397926;19;20129;-90
2023/05/21 22:05:40;;;;;;;0.85;0.85;;;;;;;;;;7401392;19;20137;-91
2023/05/21 22:08:06;;;;;;;0.57;0.57;;;;;;;;;;7395479;19;20153;-91
2023/05/21 22:10:36;;;;;;;0.63;0.63;;;;;;;;;;7399437;19;20511;-91
2023/05/21 22:13:04;;;;;;;1.42;1.33;;;;;;;;;;7399008;19;20145;-91
2023/05/21 22:15:31;;;;;;;1.42;1.35;;;;;;;;;;7396329;19;20149;-91
2023/05/21 22:17:59;;;;;;;0.93;0.93;;;;;;;;;;7397422;19;20152;-90
2023/05/21 22:20:29;;;;;;;0.82;0.82;;;;;;;;;;7396186;19;20607;-91
2023/05/21 22:22:56;;;;;;;0.68;0.68;;;;;;;;;;7397825;19;20246;-91
2023/05/21 22:25:23;;;;;;;1.15;1.15;;;;;;;;;;7395821;19;20149;-90
2023/05/21 22:27:51;;;;;;;0.85;0.85;;;;;;;;;;7397250;19;20609;-91
2023/05/21 22:30:18;;;;;;;0.60;0.60;;;;;;;;;;7396083;19;20139;-91
2023/05/21 22:32:45;;;;;;;0.70;0.70;;;;;;;;;;7394028;19;20149;-91
2023/05/21 22:35:12;;;;;;;1.25;1.15;;;;;;;;;;7396405;19;20661;-91
2023/05/21 22:37:39;;;;;;;0.85;0.85;;;;;;;;;;7393873;19;20172;-91
2023/05/21 22:40:06;;;;;;;1.38;1.27;;;;;;;;;;7396350;19;20604;-91
2023/05/21 22:42:34;;;;;;;0.90;0.90;;;;;;;;;;7396198;19;20143;-91
2023/05/21 22:45:01;;;;;;;0.77;0.77;;;;;;;;;;7396418;19;20487;-91
2023/05/21 22:47:27;;;;;;;1.27;1.20;;;;;;;;;;7390467;19;20124;-90
2023/05/21 22:49:57;;;;;;;1.05;1.05;;;;;;;;;;7394922;19;20170;-91
2023/05/21 22:52:23;;;;;;;1.67;1.33;;;;;;;;;;7397605;19;20440;-91
2023/05/21 22:54:53;;;;;;;1.60;1.02;;;;;;;;;;7396783;19;20149;-91
2023/05/21 22:57:20;;;;;;;0.85;0.85;;;;;;;;;;7391335;19;20196;-91
2023/05/21 22:59:46;;;;;;;0.98;0.85;;;;;;;;;;7395959;19;20165;-91
2023/05/21 23:02:14;;;;;;;1.05;1.05;;;;;;;;;;7400318;19;20129;-91
2023/05/21 23:04:41;;;;;;;1.63;1.52;;;;;;;;;;7398072;19;20147;-90
2023/05/21 23:07:10;;;;;;;0.70;0.70;;;;;;;;;;7397733;19;20137;-90
2023/05/21 23:09:37;;;;;;;0.90;0.90;;;;;;;;;;7400424;19;20174;-90
2023/05/21 23:12:03;;;;;;;0.93;0.93;;;;;;;;;;7400919;19;20157;-91
2023/05/21 23:14:30;;;;;;;1.30;1.20;;;;;;;;;;7398249;19;20556;-90
2023/05/21 23:17:00;;;;;;;0.85;0.85;;;;;;;;;;7398307;19;20492;-90
2023/05/21 23:19:27;;;;;;;1.00;1.00;;;;;;;;;;7397667;19;20607;-90
2023/05/21 23:21:55;;;;;;;2.40;1.67;;;;;;;;;;7401228;19;20141;-90
2023/05/21 23:24:22;;;;;;;5.22;1.67;;;;;;;;;;7407151;19;20287;-91
2023/05/21 23:26:48;;;;;;;0.70;0.52;;;;;;;;;;7411779;19;20137;-91
2023/05/21 23:29:15;;;;;;;1.13;0.73;;;;;;;;;;7412336;19;20174;-91
2023/05/21 23:31:42;;;;;;;0.47;0.47;;;;;;;;;;7404047;19;20149;-91
2023/05/21 23:34:09;;;;;;;1.25;1.13;;;;;;;;;;7401036;19;20128;-90
2023/05/21 23:36:36;;;;;;;0.80;0.80;;;;;;;;;;7398960;19;20152;-90
2023/05/21 23:39:02;;;;;;;0.90;0.90;;;;;;;;;;7398755;19;20170;-91
2023/05/21 23:41:29;;;;;;;1.27;1.23;;;;;;;;;;7399042;19;20165;-90
2023/05/21 23:43:56;;;;;;;1.38;1.33;;;;;;;;;;7405111;19;20159;-91
2023/05/21 23:46:22;;;;;;;3.78;1.27;;;;;;;;;;7403776;19;20132;-91
2023/05/21 23:48:49;;;;;;;0.60;0.60;;;;;;;;;;7396584;19;20164;-91
2023/05/21 23:51:18;;;;;;;1.02;1.02;;;;;;;;;;7396015;19;20679;-91
2023/05/21 23:53:44;;;;;;;1.45;1.35;;;;;;;;;;7398296;19;20147;-90
2023/05/21 23:56:11;;;;;;;0.57;0.57;;;;;;;;;;7395663;19;20132;-91
2023/05/21 23:58:38;;;;;;;1.30;1.20;;;;;;;;;;7387348;19;20148;-91
